Aérodrome :
LOGIN :

S'inscrire | Disclaimer

   EN    FR    IT 

 










Légende :    VFR   VFR Marginal   IFR   IFR Intensif   IFR Très Intensif
Visi : 
Plafond : 
>= 8 km
>= 3000ft
5 à 8 km
1000 à 3000 ft
1500m à 5 km
500 à 1000 ft
800 à 1500m
200 à 500 ft
< 800m
< 200 ft
Symboles :   Orages  Brouillard  Fortes neiges  Fortes précipitations  Vent > 20 kt
SIGMETs :   Divers  Orages  Givrage  Turbulence  Onde Orograph.  Cendres Volcan.






- Altitude de l'aérodrome : 686 ft
- Code IATA : URS


UUOK - Vostochny

DERNIER METAR :
  • 280730Z 09004MPS 9999 -SHRA BKN033CB 13/11 Q1022 R12/290055 NOSIG RMK QFE748/0998

METARs EXPIRÉS :
  • 280700Z 10004MPS 9999 -SHRA BKN033CB 13/10 Q1022 R12/////// NOSIG RMK QFE749/0998
  • 280630Z 09004MPS 070V130 CAVOK 13/09 Q1022 R12/////// NOSIG RMK QFE749/0998
  • 280600Z 08003MPS CAVOK 13/09 Q1023 R12/////// NOSIG RMK QFE749/0999
  • 280530Z 09005MPS CAVOK 13/09 Q1022 R12/////// NOSIG RMK QFE749/0998

TAF TAF UUOK
Valide du 28 à 06h jusqu'au 28 à 15h UTC


280505Z 2806/2815 07005MPS 9999 -SHRA BKN030CB
TEMPO 2806/2812 07007G12MPS 3100 -TSRA SCT007 BKN015CB



MET'MAP, la Météo Aéronautique d'un coup d'oeil ! - Copyright ORBIFLY Décembre 2007 - Disclaimer

ORBIFLY MET'MAP TEAM :

Programmation & Développement : Alexandra Zaïnal
Sur une idée originale de : Baudouin d'Aumeries
Assistance à la programmation : Marc-Olivier Méhu
Soutien technique & logistique : Manuel Goepfert

Contact : metmap@orbifly.com




SOURCES & CREDITS :

   NOAA